sensor_id;sensor_type;location;lat;lon;timestamp;P1;durP1;ratioP1;P2;durP2;ratioP2
25503;SDS011;13410;52.114;5.718;2023-08-08T00:04:04;8.88;;;5.78;;
25503;SDS011;13410;52.114;5.718;2023-08-08T00:10:15;12.98;;;6.07;;
25503;SDS011;13410;52.114;5.718;2023-08-08T00:16:03;13.18;;;5.93;;
25503;SDS011;13410;52.114;5.718;2023-08-08T00:21:53;10.02;;;5.50;;
25503;SDS011;13410;52.114;5.718;2023-08-08T00:24:28;10.77;;;5.50;;
25503;SDS011;13410;52.114;5.718;2023-08-08T00:27:22;12.02;;;5.03;;
25503;SDS011;13410;52.114;5.718;2023-08-08T00:29:51;13.23;;;5.45;;
25503;SDS011;13410;52.114;5.718;2023-08-08T00:32:24;16.73;;;5.40;;
25503;SDS011;13410;52.114;5.718;2023-08-08T00:35:55;12.82;;;5.20;;
25503;SDS011;13410;52.114;5.718;2023-08-08T00:41:46;14.70;;;5.50;;
25503;SDS011;13410;52.114;5.718;2023-08-08T00:44:30;10.63;;;4.75;;
25503;SDS011;13410;52.114;5.718;2023-08-08T00:47:20;13.38;;;5.00;;
25503;SDS011;13410;52.114;5.718;2023-08-08T00:50:31;13.60;;;4.63;;
25503;SDS011;13410;52.114;5.718;2023-08-08T00:53:03;12.27;;;4.70;;
25503;SDS011;13410;52.114;5.718;2023-08-08T00:56:15;13.23;;;4.88;;
25503;SDS011;13410;52.114;5.718;2023-08-08T00:58:58;11.13;;;4.53;;
25503;SDS011;13410;52.114;5.718;2023-08-08T01:02:16;12.85;;;5.07;;
25503;SDS011;13410;52.114;5.718;2023-08-08T01:05:27;11.70;;;4.65;;
25503;SDS011;13410;52.114;5.718;2023-08-08T01:11:48;11.50;;;4.72;;
25503;SDS011;13410;52.114;5.718;2023-08-08T01:14:39;11.80;;;4.72;;
25503;SDS011;13410;52.114;5.718;2023-08-08T01:20:31;13.38;;;5.15;;
25503;SDS011;13410;52.114;5.718;2023-08-08T01:27:17;18.55;;;4.82;;
25503;SDS011;13410;52.114;5.718;2023-08-08T01:30:07;10.27;;;5.00;;
25503;SDS011;13410;52.114;5.718;2023-08-08T01:32:50;15.60;;;4.90;;
25503;SDS011;13410;52.114;5.718;2023-08-08T01:36:02;12.25;;;4.82;;
25503;SDS011;13410;52.114;5.718;2023-08-08T01:38:40;13.80;;;5.28;;
25503;SDS011;13410;52.114;5.718;2023-08-08T01:41:22;18.23;;;5.05;;
25503;SDS011;13410;52.114;5.718;2023-08-08T01:44:22;15.45;;;4.72;;
25503;SDS011;13410;52.114;5.718;2023-08-08T01:47:14;14.48;;;4.80;;
25503;SDS011;13410;52.114;5.718;2023-08-08T01:50:09;13.27;;;4.65;;
25503;SDS011;13410;52.114;5.718;2023-08-08T01:52:46;13.63;;;4.72;;
25503;SDS011;13410;52.114;5.718;2023-08-08T01:58:39;14.45;;;5.30;;
25503;SDS011;13410;52.114;5.718;2023-08-08T02:01:36;16.77;;;5.35;;
25503;SDS011;13410;52.114;5.718;2023-08-08T02:07:50;14.52;;;5.38;;
25503;SDS011;13410;52.114;5.718;2023-08-08T02:14:03;12.55;;;5.72;;
25503;SDS011;13410;52.114;5.718;2023-08-08T02:16:51;15.48;;;6.00;;
25503;SDS011;13410;52.114;5.718;2023-08-08T02:19:27;14.10;;;6.22;;
25503;SDS011;13410;52.114;5.718;2023-08-08T02:22:16;19.33;;;5.50;;
25503;SDS011;13410;52.114;5.718;2023-08-08T02:25:12;14.82;;;5.88;;
25503;SDS011;13410;52.114;5.718;2023-08-08T02:27:55;17.00;;;5.95;;
25503;SDS011;13410;52.114;5.718;2023-08-08T02:30:33;19.00;;;5.90;;
25503;SDS011;13410;52.114;5.718;2023-08-08T02:33:02;15.07;;;5.80;;
25503;SDS011;13410;52.114;5.718;2023-08-08T02:35:38;18.17;;;5.90;;
25503;SDS011;13410;52.114;5.718;2023-08-08T02:38:17;16.05;;;6.18;;
25503;SDS011;13410;52.114;5.718;2023-08-08T02:41:06;16.77;;;5.90;;
25503;SDS011;13410;52.114;5.718;2023-08-08T02:43:55;12.80;;;5.32;;
25503;SDS011;13410;52.114;5.718;2023-08-08T02:46:34;19.27;;;6.00;;
25503;SDS011;13410;52.114;5.718;2023-08-08T02:49:11;16.00;;;5.80;;
25503;SDS011;13410;52.114;5.718;2023-08-08T02:55:30;13.60;;;6.00;;
25503;SDS011;13410;52.114;5.718;2023-08-08T02:58:31;17.52;;;5.97;;
25503;SDS011;13410;52.114;5.718;2023-08-08T03:01:45;13.13;;;5.87;;
25503;SDS011;13410;52.114;5.718;2023-08-08T03:04:37;13.43;;;6.07;;
25503;SDS011;13410;52.114;5.718;2023-08-08T03:07:25;15.20;;;6.50;;
25503;SDS011;13410;52.114;5.718;2023-08-08T03:13:09;13.05;;;6.15;;
25503;SDS011;13410;52.114;5.718;2023-08-08T03:16:17;16.48;;;6.50;;
25503;SDS011;13410;52.114;5.718;2023-08-08T03:18:48;16.58;;;6.88;;
25503;SDS011;13410;52.114;5.718;2023-08-08T03:21:28;15.52;;;6.47;;
25503;SDS011;13410;52.114;5.718;2023-08-08T03:23:59;16.63;;;6.90;;
25503;SDS011;13410;52.114;5.718;2023-08-08T03:26:48;14.27;;;6.43;;
25503;SDS011;13410;52.114;5.718;2023-08-08T03:29:27;13.13;;;6.43;;
25503;SDS011;13410;52.114;5.718;2023-08-08T03:34:44;16.90;;;6.45;;
25503;SDS011;13410;52.114;5.718;2023-08-08T03:37:17;14.32;;;6.15;;
25503;SDS011;13410;52.114;5.718;2023-08-08T03:41:02;13.35;;;6.22;;
25503;SDS011;13410;52.114;5.718;2023-08-08T03:43:47;15.27;;;6.03;;
25503;SDS011;13410;52.114;5.718;2023-08-08T03:46:24;14.85;;;6.63;;
25503;SDS011;13410;52.114;5.718;2023-08-08T03:49:18;18.10;;;6.80;;
25503;SDS011;13410;52.114;5.718;2023-08-08T03:52:02;14.38;;;6.70;;
25503;SDS011;13410;52.114;5.718;2023-08-08T03:57:33;17.35;;;7.28;;
25503;SDS011;13410;52.114;5.718;2023-08-08T04:00:02;13.55;;;7.13;;
25503;SDS011;13410;52.114;5.718;2023-08-08T04:02:52;18.38;;;7.63;;
25503;SDS011;13410;52.114;5.718;2023-08-08T04:05:31;18.98;;;7.32;;
25503;SDS011;13410;52.114;5.718;2023-08-08T04:08:16;18.02;;;7.90;;
25503;SDS011;13410;52.114;5.718;2023-08-08T04:10:43;17.00;;;8.02;;
25503;SDS011;13410;52.114;5.718;2023-08-08T04:13:12;14.90;;;7.72;;
25503;SDS011;13410;52.114;5.718;2023-08-08T04:15:41;18.67;;;7.95;;
25503;SDS011;13410;52.114;5.718;2023-08-08T04:18:06;21.83;;;8.15;;
25503;SDS011;13410;52.114;5.718;2023-08-08T04:20:32;24.40;;;8.10;;
25503;SDS011;13410;52.114;5.718;2023-08-08T04:22:59;19.80;;;7.72;;
25503;SDS011;13410;52.114;5.718;2023-08-08T04:25:27;19.33;;;8.00;;
25503;SDS011;13410;52.114;5.718;2023-08-08T04:27:53;15.18;;;7.63;;
25503;SDS011;13410;52.114;5.718;2023-08-08T04:30:19;19.05;;;7.60;;
25503;SDS011;13410;52.114;5.718;2023-08-08T04:32:45;19.15;;;7.72;;
25503;SDS011;13410;52.114;5.718;2023-08-08T04:35:11;17.17;;;7.93;;
25503;SDS011;13410;52.114;5.718;2023-08-08T04:37:42;17.38;;;7.60;;
25503;SDS011;13410;52.114;5.718;2023-08-08T04:40:11;15.55;;;7.47;;
25503;SDS011;13410;52.114;5.718;2023-08-08T04:42:39;17.75;;;7.75;;
25503;SDS011;13410;52.114;5.718;2023-08-08T04:45:05;18.67;;;7.90;;
25503;SDS011;13410;52.114;5.718;2023-08-08T04:47:34;17.02;;;7.88;;
25503;SDS011;13410;52.114;5.718;2023-08-08T04:50:02;17.15;;;7.68;;
25503;SDS011;13410;52.114;5.718;2023-08-08T04:52:28;19.50;;;8.30;;
25503;SDS011;13410;52.114;5.718;2023-08-08T04:55:10;16.73;;;7.53;;
25503;SDS011;13410;52.114;5.718;2023-08-08T04:58:06;14.25;;;7.05;;
25503;SDS011;13410;52.114;5.718;2023-08-08T05:00:31;11.63;;;5.97;;
25503;SDS011;13410;52.114;5.718;2023-08-08T05:03:00;11.85;;;5.85;;
25503;SDS011;13410;52.114;5.718;2023-08-08T05:05:26;15.23;;;6.35;;
25503;SDS011;13410;52.114;5.718;2023-08-08T05:08:00;16.00;;;5.80;;
25503;SDS011;13410;52.114;5.718;2023-08-08T05:10:34;10.32;;;5.60;;
25503;SDS011;13410;52.114;5.718;2023-08-08T05:13:08;13.40;;;5.63;;
25503;SDS011;13410;52.114;5.718;2023-08-08T05:15:39;11.55;;;5.00;;
25503;SDS011;13410;52.114;5.718;2023-08-08T05:18:05;13.95;;;5.07;;
25503;SDS011;13410;52.114;5.718;2023-08-08T05:20:30;12.23;;;5.15;;
25503;SDS011;13410;52.114;5.718;2023-08-08T05:23:02;9.05;;;4.68;;
25503;SDS011;13410;52.114;5.718;2023-08-08T05:25:28;6.75;;;3.70;;
25503;SDS011;13410;52.114;5.718;2023-08-08T05:27:53;8.13;;;3.97;;
25503;SDS011;13410;52.114;5.718;2023-08-08T05:30:19;8.88;;;3.70;;
25503;SDS011;13410;52.114;5.718;2023-08-08T05:32:48;9.00;;;4.10;;
25503;SDS011;13410;52.114;5.718;2023-08-08T05:35:14;9.55;;;4.32;;
25503;SDS011;13410;52.114;5.718;2023-08-08T05:37:40;10.73;;;4.20;;
25503;SDS011;13410;52.114;5.718;2023-08-08T05:40:07;11.27;;;4.63;;
25503;SDS011;13410;52.114;5.718;2023-08-08T05:45:48;10.30;;;4.35;;
25503;SDS011;13410;52.114;5.718;2023-08-08T05:48:17;9.57;;;4.00;;
25503;SDS011;13410;52.114;5.718;2023-08-08T05:50:49;10.25;;;4.85;;
25503;SDS011;13410;52.114;5.718;2023-08-08T05:53:17;7.38;;;3.58;;
25503;SDS011;13410;52.114;5.718;2023-08-08T05:55:43;7.25;;;2.97;;
25503;SDS011;13410;52.114;5.718;2023-08-08T05:58:11;7.88;;;2.80;;
25503;SDS011;13410;52.114;5.718;2023-08-08T06:00:47;6.65;;;2.78;;
25503;SDS011;13410;52.114;5.718;2023-08-08T06:03:25;7.22;;;2.72;;
25503;SDS011;13410;52.114;5.718;2023-08-08T06:05:57;6.07;;;2.40;;
25503;SDS011;13410;52.114;5.718;2023-08-08T06:08:27;8.10;;;2.75;;
25503;SDS011;13410;52.114;5.718;2023-08-08T06:11:09;6.18;;;2.53;;
25503;SDS011;13410;52.114;5.718;2023-08-08T06:13:43;5.63;;;2.33;;
25503;SDS011;13410;52.114;5.718;2023-08-08T06:16:09;4.72;;;2.13;;
25503;SDS011;13410;52.114;5.718;2023-08-08T06:18:38;6.05;;;2.03;;
25503;SDS011;13410;52.114;5.718;2023-08-08T06:21:31;6.28;;;2.08;;
25503;SDS011;13410;52.114;5.718;2023-08-08T06:26:49;4.00;;;1.90;;
25503;SDS011;13410;52.114;5.718;2023-08-08T06:29:18;4.28;;;1.98;;
25503;SDS011;13410;52.114;5.718;2023-08-08T06:31:43;5.97;;;1.83;;
25503;SDS011;13410;52.114;5.718;2023-08-08T06:34:09;5.70;;;1.75;;
25503;SDS011;13410;52.114;5.718;2023-08-08T06:36:35;5.68;;;1.80;;
25503;SDS011;13410;52.114;5.718;2023-08-08T06:39:01;7.97;;;1.80;;
25503;SDS011;13410;52.114;5.718;2023-08-08T06:41:27;4.82;;;1.85;;
25503;SDS011;13410;52.114;5.718;2023-08-08T06:43:53;4.95;;;1.80;;
25503;SDS011;13410;52.114;5.718;2023-08-08T06:46:21;4.63;;;1.60;;
25503;SDS011;13410;52.114;5.718;2023-08-08T06:48:51;5.20;;;1.60;;
25503;SDS011;13410;52.114;5.718;2023-08-08T06:51:23;3.75;;;1.38;;
25503;SDS011;13410;52.114;5.718;2023-08-08T06:53:54;6.20;;;1.70;;
25503;SDS011;13410;52.114;5.718;2023-08-08T06:56:29;3.67;;;1.42;;
25503;SDS011;13410;52.114;5.718;2023-08-08T06:59:03;5.57;;;1.40;;
25503;SDS011;13410;52.114;5.718;2023-08-08T07:01:31;5.05;;;1.50;;
25503;SDS011;13410;52.114;5.718;2023-08-08T07:04:03;5.00;;;1.40;;
25503;SDS011;13410;52.114;5.718;2023-08-08T07:06:28;8.35;;;1.30;;
25503;SDS011;13410;52.114;5.718;2023-08-08T07:08:58;3.42;;;1.42;;
25503;SDS011;13410;52.114;5.718;2023-08-08T07:11:38;2.42;;;1.20;;
25503;SDS011;13410;52.114;5.718;2023-08-08T07:14:04;2.88;;;1.10;;
25503;SDS011;13410;52.114;5.718;2023-08-08T07:16:30;3.42;;;1.33;;
25503;SDS011;13410;52.114;5.718;2023-08-08T07:18:59;4.05;;;1.20;;
25503;SDS011;13410;52.114;5.718;2023-08-08T07:21:24;6.85;;;1.30;;
25503;SDS011;13410;52.114;5.718;2023-08-08T07:23:54;4.00;;;1.17;;
25503;SDS011;13410;52.114;5.718;2023-08-08T07:26:20;4.57;;;1.20;;
25503;SDS011;13410;52.114;5.718;2023-08-08T07:28:47;7.45;;;1.20;;
25503;SDS011;13410;52.114;5.718;2023-08-08T07:31:15;3.17;;;1.10;;
25503;SDS011;13410;52.114;5.718;2023-08-08T07:33:41;4.65;;;1.05;;
25503;SDS011;13410;52.114;5.718;2023-08-08T07:36:07;4.05;;;1.00;;
25503;SDS011;13410;52.114;5.718;2023-08-08T07:38:32;3.50;;;1.17;;
25503;SDS011;13410;52.114;5.718;2023-08-08T07:40:58;6.63;;;1.02;;
25503;SDS011;13410;52.114;5.718;2023-08-08T07:45:56;2.63;;;1.02;;
25503;SDS011;13410;52.114;5.718;2023-08-08T07:48:28;4.75;;;1.30;;
25503;SDS011;13410;52.114;5.718;2023-08-08T07:51:03;3.88;;;1.00;;
25503;SDS011;13410;52.114;5.718;2023-08-08T07:53:38;3.95;;;0.90;;
25503;SDS011;13410;52.114;5.718;2023-08-08T07:56:11;4.72;;;1.00;;
25503;SDS011;13410;52.114;5.718;2023-08-08T07:58:37;3.78;;;1.00;;
25503;SDS011;13410;52.114;5.718;2023-08-08T08:01:03;4.32;;;1.00;;
25503;SDS011;13410;52.114;5.718;2023-08-08T08:03:29;3.47;;;1.00;;
25503;SDS011;13410;52.114;5.718;2023-08-08T08:05:57;3.85;;;1.02;;
25503;SDS011;13410;52.114;5.718;2023-08-08T08:08:23;3.80;;;1.10;;
25503;SDS011;13410;52.114;5.718;2023-08-08T08:10:52;6.03;;;1.80;;
25503;SDS011;13410;52.114;5.718;2023-08-08T08:13:27;2.58;;;0.70;;
25503;SDS011;13410;52.114;5.718;2023-08-08T08:15:56;4.78;;;0.90;;
25503;SDS011;13410;52.114;5.718;2023-08-08T08:18:24;3.95;;;0.75;;
25503;SDS011;13410;52.114;5.718;2023-08-08T08:20:50;2.40;;;0.60;;
25503;SDS011;13410;52.114;5.718;2023-08-08T08:23:15;2.47;;;0.70;;
25503;SDS011;13410;52.114;5.718;2023-08-08T08:25:41;2.80;;;0.60;;
25503;SDS011;13410;52.114;5.718;2023-08-08T08:28:15;3.72;;;0.73;;
25503;SDS011;13410;52.114;5.718;2023-08-08T08:30:41;1.17;;;0.50;;
25503;SDS011;13410;52.114;5.718;2023-08-08T08:33:07;3.22;;;0.60;;
25503;SDS011;13410;52.114;5.718;2023-08-08T08:35:46;2.00;;;0.70;;
25503;SDS011;13410;52.114;5.718;2023-08-08T08:38:18;3.88;;;0.85;;
25503;SDS011;13410;52.114;5.718;2023-08-08T08:40:44;4.50;;;0.55;;
25503;SDS011;13410;52.114;5.718;2023-08-08T08:43:12;1.48;;;0.60;;
25503;SDS011;13410;52.114;5.718;2023-08-08T08:45:38;1.02;;;0.45;;
25503;SDS011;13410;52.114;5.718;2023-08-08T08:48:13;1.63;;;0.60;;
25503;SDS011;13410;52.114;5.718;2023-08-08T08:50:40;1.20;;;0.60;;
25503;SDS011;13410;52.114;5.718;2023-08-08T08:53:10;1.70;;;0.60;;
25503;SDS011;13410;52.114;5.718;2023-08-08T08:55:38;2.90;;;0.60;;
25503;SDS011;13410;52.114;5.718;2023-08-08T08:58:07;2.70;;;0.40;;
25503;SDS011;13410;52.114;5.718;2023-08-08T09:00:45;3.03;;;0.60;;
25503;SDS011;13410;52.114;5.718;2023-08-08T09:03:17;1.98;;;0.50;;
25503;SDS011;13410;52.114;5.718;2023-08-08T09:05:48;1.63;;;0.60;;
25503;SDS011;13410;52.114;5.718;2023-08-08T09:08:19;3.00;;;0.60;;
25503;SDS011;13410;52.114;5.718;2023-08-08T09:10:50;2.58;;;0.70;;
25503;SDS011;13410;52.114;5.718;2023-08-08T09:13:16;2.80;;;0.63;;
25503;SDS011;13410;52.114;5.718;2023-08-08T09:15:46;9.00;;;1.10;;
25503;SDS011;13410;52.114;5.718;2023-08-08T09:18:16;7.32;;;1.13;;
25503;SDS011;13410;52.114;5.718;2023-08-08T09:20:48;4.95;;;1.10;;
25503;SDS011;13410;52.114;5.718;2023-08-08T09:23:17;4.30;;;0.60;;
25503;SDS011;13410;52.114;5.718;2023-08-08T09:25:49;3.15;;;0.65;;
25503;SDS011;13410;52.114;5.718;2023-08-08T09:28:15;3.88;;;0.88;;
25503;SDS011;13410;52.114;5.718;2023-08-08T09:30:41;4.28;;;0.70;;
25503;SDS011;13410;52.114;5.718;2023-08-08T09:33:11;3.95;;;0.70;;
25503;SDS011;13410;52.114;5.718;2023-08-08T09:35:42;2.60;;;0.50;;
25503;SDS011;13410;52.114;5.718;2023-08-08T09:38:10;2.88;;;0.60;;
25503;SDS011;13410;52.114;5.718;2023-08-08T09:40:41;7.43;;;0.90;;
25503;SDS011;13410;52.114;5.718;2023-08-08T09:43:08;4.57;;;0.95;;
25503;SDS011;13410;52.114;5.718;2023-08-08T09:45:37;2.95;;;0.75;;
25503;SDS011;13410;52.114;5.718;2023-08-08T09:48:04;2.13;;;0.70;;
25503;SDS011;13410;52.114;5.718;2023-08-08T09:50:32;3.15;;;0.60;;
25503;SDS011;13410;52.114;5.718;2023-08-08T09:52:58;3.78;;;0.50;;
25503;SDS011;13410;52.114;5.718;2023-08-08T09:55:25;2.55;;;0.60;;
25503;SDS011;13410;52.114;5.718;2023-08-08T09:57:51;1.60;;;0.60;;
25503;SDS011;13410;52.114;5.718;2023-08-08T10:00:19;2.22;;;0.60;;
25503;SDS011;13410;52.114;5.718;2023-08-08T10:02:52;2.42;;;0.60;;
25503;SDS011;13410;52.114;5.718;2023-08-08T10:05:19;1.40;;;0.60;;
25503;SDS011;13410;52.114;5.718;2023-08-08T10:07:45;4.22;;;0.50;;
25503;SDS011;13410;52.114;5.718;2023-08-08T10:10:10;1.15;;;0.50;;
25503;SDS011;13410;52.114;5.718;2023-08-08T10:12:38;4.00;;;0.80;;
25503;SDS011;13410;52.114;5.718;2023-08-08T10:15:06;2.13;;;0.70;;
25503;SDS011;13410;52.114;5.718;2023-08-08T10:17:37;3.28;;;0.70;;
25503;SDS011;13410;52.114;5.718;2023-08-08T10:20:04;1.25;;;0.60;;
25503;SDS011;13410;52.114;5.718;2023-08-08T10:22:37;1.70;;;0.70;;
25503;SDS011;13410;52.114;5.718;2023-08-08T10:25:33;3.25;;;0.80;;
25503;SDS011;13410;52.114;5.718;2023-08-08T10:28:02;1.63;;;0.70;;
25503;SDS011;13410;52.114;5.718;2023-08-08T10:30:29;3.70;;;0.82;;
25503;SDS011;13410;52.114;5.718;2023-08-08T10:32:56;2.33;;;0.90;;
25503;SDS011;13410;52.114;5.718;2023-08-08T10:35:24;2.80;;;0.70;;
25503;SDS011;13410;52.114;5.718;2023-08-08T10:38:07;4.00;;;0.70;;
25503;SDS011;13410;52.114;5.718;2023-08-08T10:40:34;2.65;;;0.80;;
25503;SDS011;13410;52.114;5.718;2023-08-08T10:43:09;2.63;;;0.77;;
25503;SDS011;13410;52.114;5.718;2023-08-08T10:45:37;2.50;;;0.65;;
25503;SDS011;13410;52.114;5.718;2023-08-08T10:48:09;2.85;;;0.98;;
25503;SDS011;13410;52.114;5.718;2023-08-08T10:53:34;2.35;;;0.80;;
25503;SDS011;13410;52.114;5.718;2023-08-08T10:56:03;2.92;;;0.90;;
25503;SDS011;13410;52.114;5.718;2023-08-08T10:58:48;4.50;;;0.98;;
25503;SDS011;13410;52.114;5.718;2023-08-08T11:01:24;2.10;;;0.82;;
25503;SDS011;13410;52.114;5.718;2023-08-08T11:03:50;2.47;;;0.73;;
25503;SDS011;13410;52.114;5.718;2023-08-08T11:06:22;3.15;;;0.60;;
25503;SDS011;13410;52.114;5.718;2023-08-08T11:08:48;4.38;;;0.93;;
25503;SDS011;13410;52.114;5.718;2023-08-08T11:11:16;3.13;;;0.47;;
25503;SDS011;13410;52.114;5.718;2023-08-08T11:13:45;1.80;;;0.80;;
25503;SDS011;13410;52.114;5.718;2023-08-08T11:16:10;2.05;;;0.68;;
25503;SDS011;13410;52.114;5.718;2023-08-08T11:18:41;1.17;;;0.63;;
25503;SDS011;13410;52.114;5.718;2023-08-08T11:21:11;2.83;;;0.80;;
25503;SDS011;13410;52.114;5.718;2023-08-08T11:23:37;2.75;;;0.70;;
25503;SDS011;13410;52.114;5.718;2023-08-08T11:26:13;3.05;;;0.70;;
25503;SDS011;13410;52.114;5.718;2023-08-08T11:28:48;4.00;;;1.00;;
25503;SDS011;13410;52.114;5.718;2023-08-08T11:31:20;6.38;;;1.40;;
25503;SDS011;13410;52.114;5.718;2023-08-08T11:33:47;4.18;;;1.08;;
25503;SDS011;13410;52.114;5.718;2023-08-08T11:36:13;3.50;;;1.15;;
25503;SDS011;13410;52.114;5.718;2023-08-08T11:38:39;2.17;;;0.90;;
25503;SDS011;13410;52.114;5.718;2023-08-08T11:41:08;4.45;;;1.40;;
25503;SDS011;13410;52.114;5.718;2023-08-08T11:43:35;1.83;;;1.08;;
25503;SDS011;13410;52.114;5.718;2023-08-08T11:46:02;8.90;;;6.47;;
25503;SDS011;13410;52.114;5.718;2023-08-08T11:48:34;5.95;;;2.70;;
25503;SDS011;13410;52.114;5.718;2023-08-08T11:51:02;1.85;;;0.70;;
25503;SDS011;13410;52.114;5.718;2023-08-08T11:53:29;3.15;;;1.00;;
25503;SDS011;13410;52.114;5.718;2023-08-08T11:55:58;3.08;;;1.20;;
25503;SDS011;13410;52.114;5.718;2023-08-08T11:58:27;2.72;;;0.90;;
25503;SDS011;13410;52.114;5.718;2023-08-08T12:00:53;3.25;;;2.00;;
25503;SDS011;13410;52.114;5.718;2023-08-08T12:03:21;2.92;;;2.40;;
25503;SDS011;13410;52.114;5.718;2023-08-08T12:05:57;2.72;;;1.30;;
25503;SDS011;13410;52.114;5.718;2023-08-08T12:08:32;3.40;;;1.80;;
25503;SDS011;13410;52.114;5.718;2023-08-08T12:11:00;13.02;;;4.93;;
25503;SDS011;13410;52.114;5.718;2023-08-08T12:13:30;1.85;;;0.88;;
25503;SDS011;13410;52.114;5.718;2023-08-08T12:16:12;4.47;;;0.88;;
25503;SDS011;13410;52.114;5.718;2023-08-08T12:19:15;2.22;;;0.80;;
25503;SDS011;13410;52.114;5.718;2023-08-08T12:21:49;1.90;;;0.68;;
25503;SDS011;13410;52.114;5.718;2023-08-08T12:24:15;2.25;;;0.75;;
25503;SDS011;13410;52.114;5.718;2023-08-08T12:26:48;1.80;;;0.70;;
25503;SDS011;13410;52.114;5.718;2023-08-08T12:29:19;2.25;;;0.80;;
25503;SDS011;13410;52.114;5.718;2023-08-08T12:31:48;3.45;;;0.95;;
25503;SDS011;13410;52.114;5.718;2023-08-08T12:34:14;2.95;;;0.93;;
25503;SDS011;13410;52.114;5.718;2023-08-08T12:36:39;1.65;;;0.85;;
25503;SDS011;13410;52.114;5.718;2023-08-08T12:39:05;1.42;;;0.77;;
25503;SDS011;13410;52.114;5.718;2023-08-08T12:41:35;4.97;;;0.75;;
25503;SDS011;13410;52.114;5.718;2023-08-08T12:44:01;2.58;;;0.80;;
25503;SDS011;13410;52.114;5.718;2023-08-08T12:46:28;3.15;;;0.73;;
25503;SDS011;13410;52.114;5.718;2023-08-08T12:48:53;2.03;;;0.60;;
25503;SDS011;13410;52.114;5.718;2023-08-08T12:51:19;1.27;;;0.60;;
25503;SDS011;13410;52.114;5.718;2023-08-08T12:53:45;1.95;;;0.70;;
25503;SDS011;13410;52.114;5.718;2023-08-08T12:56:11;2.60;;;0.82;;
25503;SDS011;13410;52.114;5.718;2023-08-08T12:58:36;2.53;;;0.80;;
25503;SDS011;13410;52.114;5.718;2023-08-08T13:01:02;2.33;;;0.70;;
25503;SDS011;13410;52.114;5.718;2023-08-08T13:03:30;3.00;;;0.70;;
25503;SDS011;13410;52.114;5.718;2023-08-08T13:05:58;1.88;;;0.60;;
25503;SDS011;13410;52.114;5.718;2023-08-08T13:08:24;2.50;;;0.80;;
25503;SDS011;13410;52.114;5.718;2023-08-08T13:10:50;12.88;;;1.70;;
25503;SDS011;13410;52.114;5.718;2023-08-08T13:13:19;10.80;;;1.15;;
25503;SDS011;13410;52.114;5.718;2023-08-08T13:15:45;4.03;;;0.80;;
25503;SDS011;13410;52.114;5.718;2023-08-08T13:18:12;2.88;;;0.75;;
25503;SDS011;13410;52.114;5.718;2023-08-08T13:20:37;2.03;;;0.77;;
25503;SDS011;13410;52.114;5.718;2023-08-08T13:23:03;2.75;;;1.20;;
25503;SDS011;13410;52.114;5.718;2023-08-08T13:25:29;4.78;;;0.95;;
25503;SDS011;13410;52.114;5.718;2023-08-08T13:27:56;3.00;;;0.82;;
25503;SDS011;13410;52.114;5.718;2023-08-08T13:30:22;1.63;;;0.70;;
25503;SDS011;13410;52.114;5.718;2023-08-08T13:32:47;4.65;;;0.80;;
25503;SDS011;13410;52.114;5.718;2023-08-08T13:35:13;4.97;;;0.80;;
25503;SDS011;13410;52.114;5.718;2023-08-08T13:37:39;6.55;;;1.10;;
25503;SDS011;13410;52.114;5.718;2023-08-08T13:40:05;3.75;;;0.80;;
25503;SDS011;13410;52.114;5.718;2023-08-08T13:42:31;3.75;;;0.93;;
25503;SDS011;13410;52.114;5.718;2023-08-08T13:44:56;2.83;;;0.80;;
25503;SDS011;13410;52.114;5.718;2023-08-08T13:47:22;2.28;;;0.90;;
25503;SDS011;13410;52.114;5.718;2023-08-08T13:49:48;7.53;;;1.10;;
25503;SDS011;13410;52.114;5.718;2023-08-08T13:52:13;2.38;;;0.73;;
25503;SDS011;13410;52.114;5.718;2023-08-08T13:54:39;4.18;;;0.77;;
25503;SDS011;13410;52.114;5.718;2023-08-08T13:57:05;2.17;;;0.95;;
25503;SDS011;13410;52.114;5.718;2023-08-08T13:59:30;8.80;;;1.67;;
25503;SDS011;13410;52.114;5.718;2023-08-08T14:01:56;6.82;;;1.33;;
25503;SDS011;13410;52.114;5.718;2023-08-08T14:04:22;5.38;;;0.90;;
25503;SDS011;13410;52.114;5.718;2023-08-08T14:06:48;4.40;;;1.00;;
25503;SDS011;13410;52.114;5.718;2023-08-08T14:09:14;9.77;;;1.75;;
25503;SDS011;13410;52.114;5.718;2023-08-08T14:11:39;3.08;;;1.10;;
25503;SDS011;13410;52.114;5.718;2023-08-08T14:14:05;3.50;;;1.00;;
25503;SDS011;13410;52.114;5.718;2023-08-08T14:16:31;5.75;;;1.20;;
25503;SDS011;13410;52.114;5.718;2023-08-08T14:18:57;4.45;;;1.20;;
25503;SDS011;13410;52.114;5.718;2023-08-08T14:21:23;3.15;;;1.10;;
25503;SDS011;13410;52.114;5.718;2023-08-08T14:23:49;7.32;;;1.20;;
25503;SDS011;13410;52.114;5.718;2023-08-08T14:26:15;3.58;;;1.23;;
25503;SDS011;13410;52.114;5.718;2023-08-08T14:28:40;3.63;;;1.27;;
25503;SDS011;13410;52.114;5.718;2023-08-08T14:31:06;4.60;;;1.55;;
25503;SDS011;13410;52.114;5.718;2023-08-08T14:33:32;2.78;;;1.00;;
25503;SDS011;13410;52.114;5.718;2023-08-08T14:35:58;3.15;;;1.13;;
25503;SDS011;13410;52.114;5.718;2023-08-08T14:38:24;2.10;;;0.90;;
25503;SDS011;13410;52.114;5.718;2023-08-08T14:40:53;4.75;;;1.10;;
25503;SDS011;13410;52.114;5.718;2023-08-08T14:43:21;6.13;;;1.20;;
25503;SDS011;13410;52.114;5.718;2023-08-08T14:45:48;21.20;;;2.63;;
25503;SDS011;13410;52.114;5.718;2023-08-08T14:48:16;5.78;;;1.20;;
25503;SDS011;13410;52.114;5.718;2023-08-08T14:50:42;4.82;;;0.80;;
25503;SDS011;13410;52.114;5.718;2023-08-08T14:53:08;5.55;;;1.15;;
25503;SDS011;13410;52.114;5.718;2023-08-08T14:55:33;2.28;;;0.80;;
25503;SDS011;13410;52.114;5.718;2023-08-08T14:57:59;2.67;;;1.13;;
25503;SDS011;13410;52.114;5.718;2023-08-08T15:00:25;3.10;;;1.00;;
25503;SDS011;13410;52.114;5.718;2023-08-08T15:02:50;3.15;;;0.90;;
25503;SDS011;13410;52.114;5.718;2023-08-08T15:05:16;2.13;;;0.80;;
25503;SDS011;13410;52.114;5.718;2023-08-08T15:07:41;5.55;;;0.93;;
25503;SDS011;13410;52.114;5.718;2023-08-08T15:10:07;5.53;;;1.00;;
25503;SDS011;13410;52.114;5.718;2023-08-08T15:12:33;15.75;;;2.80;;
25503;SDS011;13410;52.114;5.718;2023-08-08T15:15:00;4.97;;;0.90;;
25503;SDS011;13410;52.114;5.718;2023-08-08T15:17:28;2.88;;;1.00;;
25503;SDS011;13410;52.114;5.718;2023-08-08T15:23:27;2.50;;;1.10;;
25503;SDS011;13410;52.114;5.718;2023-08-08T15:25:53;3.03;;;0.93;;
25503;SDS011;13410;52.114;5.718;2023-08-08T15:28:20;2.75;;;1.00;;
25503;SDS011;13410;52.114;5.718;2023-08-08T15:30:49;4.70;;;0.95;;
25503;SDS011;13410;52.114;5.718;2023-08-08T15:33:14;6.65;;;1.48;;
25503;SDS011;13410;52.114;5.718;2023-08-08T15:35:43;3.63;;;1.30;;
25503;SDS011;13410;52.114;5.718;2023-08-08T15:38:09;3.50;;;1.00;;
25503;SDS011;13410;52.114;5.718;2023-08-08T15:40:37;2.08;;;0.90;;
25503;SDS011;13410;52.114;5.718;2023-08-08T15:43:07;4.70;;;1.17;;
25503;SDS011;13410;52.114;5.718;2023-08-08T15:45:33;4.22;;;1.10;;
25503;SDS011;13410;52.114;5.718;2023-08-08T15:48:01;3.28;;;1.17;;
25503;SDS011;13410;52.114;5.718;2023-08-08T15:50:39;3.53;;;1.30;;
25503;SDS011;13410;52.114;5.718;2023-08-08T15:53:05;3.13;;;1.05;;
25503;SDS011;13410;52.114;5.718;2023-08-08T15:55:32;4.13;;;1.30;;
25503;SDS011;13410;52.114;5.718;2023-08-08T15:57:58;1.92;;;1.15;;
25503;SDS011;13410;52.114;5.718;2023-08-08T16:00:23;3.50;;;1.40;;
25503;SDS011;13410;52.114;5.718;2023-08-08T16:02:52;4.13;;;0.93;;
25503;SDS011;13410;52.114;5.718;2023-08-08T16:05:30;2.10;;;1.38;;
25503;SDS011;13410;52.114;5.718;2023-08-08T16:07:58;3.25;;;1.50;;
25503;SDS011;13410;52.114;5.718;2023-08-08T16:10:34;2.78;;;1.30;;
25503;SDS011;13410;52.114;5.718;2023-08-08T16:13:10;3.30;;;1.48;;
25503;SDS011;13410;52.114;5.718;2023-08-08T16:15:44;2.83;;;1.45;;
25503;SDS011;13410;52.114;5.718;2023-08-08T16:18:14;4.47;;;1.50;;